sensor_id;sensor_type;location;lat;lon;timestamp;P1;durP1;ratioP1;P2;durP2;ratioP2
37455;SDS011;23316;50.718;7.328;2023-12-07T00:01:21;16.95;;;10.88;;
37455;SDS011;23316;50.718;7.328;2023-12-07T00:03:48;17.75;;;10.20;;
37455;SDS011;23316;50.718;7.328;2023-12-07T00:06:17;16.35;;;10.95;;
37455;SDS011;23316;50.718;7.328;2023-12-07T00:08:44;18.55;;;10.25;;
37455;SDS011;23316;50.718;7.328;2023-12-07T00:11:10;17.13;;;10.48;;
37455;SDS011;23316;50.718;7.328;2023-12-07T00:13:37;17.90;;;10.60;;
37455;SDS011;23316;50.718;7.328;2023-12-07T00:16:05;16.83;;;10.27;;
37455;SDS011;23316;50.718;7.328;2023-12-07T00:18:32;13.93;;;9.80;;
37455;SDS011;23316;50.718;7.328;2023-12-07T00:20:59;18.35;;;10.43;;
37455;SDS011;23316;50.718;7.328;2023-12-07T00:23:28;16.63;;;10.60;;
37455;SDS011;23316;50.718;7.328;2023-12-07T00:25:56;17.92;;;10.15;;
37455;SDS011;23316;50.718;7.328;2023-12-07T00:28:23;19.60;;;11.00;;
37455;SDS011;23316;50.718;7.328;2023-12-07T00:30:50;17.20;;;10.98;;
37455;SDS011;23316;50.718;7.328;2023-12-07T00:33:17;20.98;;;10.90;;
37455;SDS011;23316;50.718;7.328;2023-12-07T00:35:47;17.58;;;10.10;;
37455;SDS011;23316;50.718;7.328;2023-12-07T00:38:14;16.63;;;10.45;;
37455;SDS011;23316;50.718;7.328;2023-12-07T00:40:42;17.73;;;10.38;;
37455;SDS011;23316;50.718;7.328;2023-12-07T00:43:09;18.60;;;10.73;;
37455;SDS011;23316;50.718;7.328;2023-12-07T00:45:36;20.83;;;11.65;;
37455;SDS011;23316;50.718;7.328;2023-12-07T00:48:04;17.88;;;11.68;;
37455;SDS011;23316;50.718;7.328;2023-12-07T00:50:31;19.35;;;11.65;;
37455;SDS011;23316;50.718;7.328;2023-12-07T00:52:58;19.08;;;11.57;;
37455;SDS011;23316;50.718;7.328;2023-12-07T00:55:25;20.73;;;11.55;;
37455;SDS011;23316;50.718;7.328;2023-12-07T00:57:54;17.55;;;11.00;;
37455;SDS011;23316;50.718;7.328;2023-12-07T01:00:21;18.45;;;11.20;;
37455;SDS011;23316;50.718;7.328;2023-12-07T01:02:49;18.75;;;10.80;;
37455;SDS011;23316;50.718;7.328;2023-12-07T01:05:16;17.60;;;11.05;;
37455;SDS011;23316;50.718;7.328;2023-12-07T01:07:44;17.45;;;10.45;;
37455;SDS011;23316;50.718;7.328;2023-12-07T01:10:11;17.83;;;10.48;;
37455;SDS011;23316;50.718;7.328;2023-12-07T01:12:39;18.08;;;11.52;;
37455;SDS011;23316;50.718;7.328;2023-12-07T01:15:08;16.85;;;11.35;;
37455;SDS011;23316;50.718;7.328;2023-12-07T01:17:35;17.67;;;11.25;;
37455;SDS011;23316;50.718;7.328;2023-12-07T01:20:03;17.27;;;10.07;;
37455;SDS011;23316;50.718;7.328;2023-12-07T01:22:32;16.50;;;10.45;;
37455;SDS011;23316;50.718;7.328;2023-12-07T01:25:00;17.05;;;10.82;;
37455;SDS011;23316;50.718;7.328;2023-12-07T01:27:28;16.02;;;10.30;;
37455;SDS011;23316;50.718;7.328;2023-12-07T01:29:55;16.52;;;10.32;;
37455;SDS011;23316;50.718;7.328;2023-12-07T01:32:23;21.02;;;10.75;;
37455;SDS011;23316;50.718;7.328;2023-12-07T01:34:51;15.43;;;10.15;;
37455;SDS011;23316;50.718;7.328;2023-12-07T01:37:18;16.65;;;10.70;;
37455;SDS011;23316;50.718;7.328;2023-12-07T01:39:45;18.70;;;11.15;;
37455;SDS011;23316;50.718;7.328;2023-12-07T01:42:12;20.05;;;11.25;;
37455;SDS011;23316;50.718;7.328;2023-12-07T01:44:39;20.60;;;12.10;;
37455;SDS011;23316;50.718;7.328;2023-12-07T01:47:07;20.48;;;11.27;;
37455;SDS011;23316;50.718;7.328;2023-12-07T01:49:37;18.10;;;10.75;;
37455;SDS011;23316;50.718;7.328;2023-12-07T01:52:05;18.92;;;11.40;;
37455;SDS011;23316;50.718;7.328;2023-12-07T01:54:33;18.60;;;10.93;;
37455;SDS011;23316;50.718;7.328;2023-12-07T01:57:01;17.90;;;10.48;;
37455;SDS011;23316;50.718;7.328;2023-12-07T01:59:29;19.45;;;9.98;;
37455;SDS011;23316;50.718;7.328;2023-12-07T02:01:56;13.90;;;8.95;;
37455;SDS011;23316;50.718;7.328;2023-12-07T02:04:24;14.05;;;9.30;;
37455;SDS011;23316;50.718;7.328;2023-12-07T02:06:52;16.63;;;9.65;;
37455;SDS011;23316;50.718;7.328;2023-12-07T02:09:23;15.95;;;9.95;;
37455;SDS011;23316;50.718;7.328;2023-12-07T02:11:50;22.90;;;11.13;;
37455;SDS011;23316;50.718;7.328;2023-12-07T02:14:20;15.93;;;9.15;;
37455;SDS011;23316;50.718;7.328;2023-12-07T02:16:48;17.85;;;10.85;;
37455;SDS011;23316;50.718;7.328;2023-12-07T02:19:24;15.82;;;9.80;;
37455;SDS011;23316;50.718;7.328;2023-12-07T02:22:14;17.45;;;10.25;;
37455;SDS011;23316;50.718;7.328;2023-12-07T02:24:48;15.35;;;10.00;;
37455;SDS011;23316;50.718;7.328;2023-12-07T02:27:39;15.93;;;10.60;;
37455;SDS011;23316;50.718;7.328;2023-12-07T02:30:07;17.30;;;10.38;;
37455;SDS011;23316;50.718;7.328;2023-12-07T02:32:36;17.88;;;10.52;;
37455;SDS011;23316;50.718;7.328;2023-12-07T02:35:04;14.15;;;9.68;;
37455;SDS011;23316;50.718;7.328;2023-12-07T02:37:33;16.73;;;10.15;;
37455;SDS011;23316;50.718;7.328;2023-12-07T02:40:03;17.27;;;9.85;;
37455;SDS011;23316;50.718;7.328;2023-12-07T02:42:35;15.45;;;9.07;;
37455;SDS011;23316;50.718;7.328;2023-12-07T02:45:06;19.45;;;10.32;;
37455;SDS011;23316;50.718;7.328;2023-12-07T02:47:35;19.15;;;9.77;;
37455;SDS011;23316;50.718;7.328;2023-12-07T02:50:02;15.60;;;9.68;;
37455;SDS011;23316;50.718;7.328;2023-12-07T02:52:31;13.43;;;8.43;;
37455;SDS011;23316;50.718;7.328;2023-12-07T02:54:58;13.85;;;8.30;;
37455;SDS011;23316;50.718;7.328;2023-12-07T02:57:26;17.30;;;9.35;;
37455;SDS011;23316;50.718;7.328;2023-12-07T02:59:54;13.70;;;8.80;;
37455;SDS011;23316;50.718;7.328;2023-12-07T03:02:22;15.10;;;9.20;;
37455;SDS011;23316;50.718;7.328;2023-12-07T03:04:49;14.05;;;9.02;;
37455;SDS011;23316;50.718;7.328;2023-12-07T03:07:16;14.50;;;8.75;;
37455;SDS011;23316;50.718;7.328;2023-12-07T03:09:43;16.83;;;8.88;;
37455;SDS011;23316;50.718;7.328;2023-12-07T03:12:11;12.60;;;8.82;;
37455;SDS011;23316;50.718;7.328;2023-12-07T03:14:38;15.45;;;9.35;;
37455;SDS011;23316;50.718;7.328;2023-12-07T03:17:07;17.08;;;9.57;;
37455;SDS011;23316;50.718;7.328;2023-12-07T03:19:37;15.40;;;9.13;;
37455;SDS011;23316;50.718;7.328;2023-12-07T03:22:04;15.80;;;8.65;;
37455;SDS011;23316;50.718;7.328;2023-12-07T03:24:32;14.07;;;9.00;;
37455;SDS011;23316;50.718;7.328;2023-12-07T03:27:00;15.95;;;8.70;;
37455;SDS011;23316;50.718;7.328;2023-12-07T03:29:27;12.13;;;8.25;;
37455;SDS011;23316;50.718;7.328;2023-12-07T03:31:55;14.98;;;8.73;;
37455;SDS011;23316;50.718;7.328;2023-12-07T03:34:23;13.05;;;7.50;;
37455;SDS011;23316;50.718;7.328;2023-12-07T03:36:50;13.73;;;8.23;;
37455;SDS011;23316;50.718;7.328;2023-12-07T03:39:18;13.73;;;8.00;;
37455;SDS011;23316;50.718;7.328;2023-12-07T03:41:47;13.93;;;8.23;;
37455;SDS011;23316;50.718;7.328;2023-12-07T03:44:14;13.50;;;7.93;;
37455;SDS011;23316;50.718;7.328;2023-12-07T03:46:41;13.20;;;8.15;;
37455;SDS011;23316;50.718;7.328;2023-12-07T03:49:09;17.35;;;8.02;;
37455;SDS011;23316;50.718;7.328;2023-12-07T03:51:38;14.43;;;7.63;;
37455;SDS011;23316;50.718;7.328;2023-12-07T03:54:06;14.05;;;8.10;;
37455;SDS011;23316;50.718;7.328;2023-12-07T03:56:33;14.60;;;8.30;;
37455;SDS011;23316;50.718;7.328;2023-12-07T03:59:00;18.90;;;8.02;;
37455;SDS011;23316;50.718;7.328;2023-12-07T04:01:28;12.23;;;8.20;;
37455;SDS011;23316;50.718;7.328;2023-12-07T04:03:56;12.32;;;6.93;;
37455;SDS011;23316;50.718;7.328;2023-12-07T04:06:26;10.98;;;6.97;;
37455;SDS011;23316;50.718;7.328;2023-12-07T04:08:55;12.70;;;7.53;;
37455;SDS011;23316;50.718;7.328;2023-12-07T04:11:22;14.93;;;7.78;;
37455;SDS011;23316;50.718;7.328;2023-12-07T04:13:50;13.88;;;7.15;;
37455;SDS011;23316;50.718;7.328;2023-12-07T04:16:17;15.85;;;7.35;;
37455;SDS011;23316;50.718;7.328;2023-12-07T04:18:44;14.38;;;7.40;;
37455;SDS011;23316;50.718;7.328;2023-12-07T04:21:11;14.68;;;7.07;;
37455;SDS011;23316;50.718;7.328;2023-12-07T04:23:39;11.60;;;7.53;;
37455;SDS011;23316;50.718;7.328;2023-12-07T04:26:08;11.27;;;7.40;;
37455;SDS011;23316;50.718;7.328;2023-12-07T04:28:37;11.60;;;7.45;;
37455;SDS011;23316;50.718;7.328;2023-12-07T04:31:04;10.93;;;7.35;;
37455;SDS011;23316;50.718;7.328;2023-12-07T04:33:31;13.63;;;7.70;;
37455;SDS011;23316;50.718;7.328;2023-12-07T04:35:59;13.65;;;8.02;;
37455;SDS011;23316;50.718;7.328;2023-12-07T04:38:26;13.02;;;7.63;;
37455;SDS011;23316;50.718;7.328;2023-12-07T04:40:53;15.73;;;8.63;;
37455;SDS011;23316;50.718;7.328;2023-12-07T04:43:22;12.68;;;8.10;;
37455;SDS011;23316;50.718;7.328;2023-12-07T04:45:49;14.00;;;8.75;;
37455;SDS011;23316;50.718;7.328;2023-12-07T04:48:16;14.27;;;8.80;;
37455;SDS011;23316;50.718;7.328;2023-12-07T04:50:44;19.55;;;9.25;;
37455;SDS011;23316;50.718;7.328;2023-12-07T04:53:11;14.90;;;9.00;;
37455;SDS011;23316;50.718;7.328;2023-12-07T04:55:39;16.60;;;8.55;;
37455;SDS011;23316;50.718;7.328;2023-12-07T04:58:08;12.05;;;8.73;;
37455;SDS011;23316;50.718;7.328;2023-12-07T05:00:37;16.58;;;9.20;;
37455;SDS011;23316;50.718;7.328;2023-12-07T05:03:04;13.93;;;8.05;;
37455;SDS011;23316;50.718;7.328;2023-12-07T05:05:32;15.90;;;9.70;;
37455;SDS011;23316;50.718;7.328;2023-12-07T05:07:59;14.05;;;8.55;;
37455;SDS011;23316;50.718;7.328;2023-12-07T05:10:26;16.27;;;8.85;;
37455;SDS011;23316;50.718;7.328;2023-12-07T05:12:53;15.05;;;8.80;;
37455;SDS011;23316;50.718;7.328;2023-12-07T05:15:22;17.15;;;9.52;;
37455;SDS011;23316;50.718;7.328;2023-12-07T05:17:51;16.15;;;8.57;;
37455;SDS011;23316;50.718;7.328;2023-12-07T05:20:18;15.07;;;9.35;;
37455;SDS011;23316;50.718;7.328;2023-12-07T05:22:48;17.10;;;9.82;;
37455;SDS011;23316;50.718;7.328;2023-12-07T05:25:15;14.88;;;9.38;;
37455;SDS011;23316;50.718;7.328;2023-12-07T05:27:43;17.30;;;9.70;;
37455;SDS011;23316;50.718;7.328;2023-12-07T05:30:10;14.40;;;9.75;;
37455;SDS011;23316;50.718;7.328;2023-12-07T05:32:38;16.08;;;9.77;;
37455;SDS011;23316;50.718;7.328;2023-12-07T05:35:07;15.27;;;10.25;;
37455;SDS011;23316;50.718;7.328;2023-12-07T05:37:35;17.95;;;9.38;;
37455;SDS011;23316;50.718;7.328;2023-12-07T05:40:02;17.08;;;9.95;;
37455;SDS011;23316;50.718;7.328;2023-12-07T05:42:31;14.90;;;9.40;;
37455;SDS011;23316;50.718;7.328;2023-12-07T05:44:58;15.98;;;9.63;;
37455;SDS011;23316;50.718;7.328;2023-12-07T05:47:26;17.75;;;9.93;;
37455;SDS011;23316;50.718;7.328;2023-12-07T05:49:53;17.70;;;11.10;;
37455;SDS011;23316;50.718;7.328;2023-12-07T05:52:24;20.13;;;10.98;;
37455;SDS011;23316;50.718;7.328;2023-12-07T05:54:51;23.30;;;11.95;;
37455;SDS011;23316;50.718;7.328;2023-12-07T05:57:19;18.15;;;11.40;;
37455;SDS011;23316;50.718;7.328;2023-12-07T05:59:46;21.73;;;10.98;;
37455;SDS011;23316;50.718;7.328;2023-12-07T06:02:13;18.25;;;11.02;;
37455;SDS011;23316;50.718;7.328;2023-12-07T06:04:40;18.90;;;11.27;;
37455;SDS011;23316;50.718;7.328;2023-12-07T06:07:08;17.52;;;11.02;;
37455;SDS011;23316;50.718;7.328;2023-12-07T06:09:36;19.90;;;11.77;;
37455;SDS011;23316;50.718;7.328;2023-12-07T06:12:03;22.25;;;12.15;;
37455;SDS011;23316;50.718;7.328;2023-12-07T06:14:31;23.88;;;14.38;;
37455;SDS011;23316;50.718;7.328;2023-12-07T06:16:58;23.33;;;13.50;;
37455;SDS011;23316;50.718;7.328;2023-12-07T06:19:26;23.35;;;14.27;;
37455;SDS011;23316;50.718;7.328;2023-12-07T06:21:53;21.90;;;14.05;;
37455;SDS011;23316;50.718;7.328;2023-12-07T06:24:21;24.08;;;14.18;;
37455;SDS011;23316;50.718;7.328;2023-12-07T06:26:51;21.95;;;13.73;;
37455;SDS011;23316;50.718;7.328;2023-12-07T06:29:18;23.42;;;13.95;;
37455;SDS011;23316;50.718;7.328;2023-12-07T06:31:45;22.60;;;13.68;;
37455;SDS011;23316;50.718;7.328;2023-12-07T06:34:13;22.48;;;13.98;;
37455;SDS011;23316;50.718;7.328;2023-12-07T06:36:40;28.52;;;16.13;;
37455;SDS011;23316;50.718;7.328;2023-12-07T06:39:07;53.25;;;26.50;;
37455;SDS011;23316;50.718;7.328;2023-12-07T06:41:34;32.05;;;18.85;;
37455;SDS011;23316;50.718;7.328;2023-12-07T06:44:03;29.75;;;16.55;;
37455;SDS011;23316;50.718;7.328;2023-12-07T06:46:30;27.77;;;16.95;;
37455;SDS011;23316;50.718;7.328;2023-12-07T06:48:57;37.55;;;17.90;;
37455;SDS011;23316;50.718;7.328;2023-12-07T06:51:25;32.08;;;18.13;;
37455;SDS011;23316;50.718;7.328;2023-12-07T06:53:52;35.28;;;17.67;;
37455;SDS011;23316;50.718;7.328;2023-12-07T06:56:20;41.90;;;19.05;;
37455;SDS011;23316;50.718;7.328;2023-12-07T06:58:47;35.20;;;18.83;;
37455;SDS011;23316;50.718;7.328;2023-12-07T07:01:15;32.58;;;17.75;;
37455;SDS011;23316;50.718;7.328;2023-12-07T07:03:43;28.25;;;17.63;;
37455;SDS011;23316;50.718;7.328;2023-12-07T07:06:10;32.03;;;18.80;;
37455;SDS011;23316;50.718;7.328;2023-12-07T07:08:37;32.65;;;19.13;;
37455;SDS011;23316;50.718;7.328;2023-12-07T07:11:09;32.35;;;18.88;;
37455;SDS011;23316;50.718;7.328;2023-12-07T07:13:38;30.70;;;18.75;;
37455;SDS011;23316;50.718;7.328;2023-12-07T07:16:06;32.42;;;19.00;;
37455;SDS011;23316;50.718;7.328;2023-12-07T07:18:36;34.10;;;18.80;;
37455;SDS011;23316;50.718;7.328;2023-12-07T07:21:04;30.02;;;17.13;;
37455;SDS011;23316;50.718;7.328;2023-12-07T07:23:32;33.97;;;18.50;;
37455;SDS011;23316;50.718;7.328;2023-12-07T07:26:00;33.15;;;18.73;;
37455;SDS011;23316;50.718;7.328;2023-12-07T07:28:27;32.83;;;17.90;;
37455;SDS011;23316;50.718;7.328;2023-12-07T07:30:54;33.55;;;18.13;;
37455;SDS011;23316;50.718;7.328;2023-12-07T07:33:22;28.98;;;17.10;;
37455;SDS011;23316;50.718;7.328;2023-12-07T07:35:50;34.88;;;18.83;;
37455;SDS011;23316;50.718;7.328;2023-12-07T07:38:17;28.38;;;17.25;;
37455;SDS011;23316;50.718;7.328;2023-12-07T07:40:45;32.22;;;18.17;;
37455;SDS011;23316;50.718;7.328;2023-12-07T07:43:14;31.48;;;18.23;;
37455;SDS011;23316;50.718;7.328;2023-12-07T07:45:41;29.70;;;17.38;;
37455;SDS011;23316;50.718;7.328;2023-12-07T07:48:09;32.00;;;17.90;;
37455;SDS011;23316;50.718;7.328;2023-12-07T07:50:36;28.17;;;17.75;;
37455;SDS011;23316;50.718;7.328;2023-12-07T07:53:04;32.28;;;17.70;;
37455;SDS011;23316;50.718;7.328;2023-12-07T07:55:32;30.27;;;17.70;;
37455;SDS011;23316;50.718;7.328;2023-12-07T07:57:59;31.63;;;18.60;;
37455;SDS011;23316;50.718;7.328;2023-12-07T08:00:26;26.92;;;16.92;;
37455;SDS011;23316;50.718;7.328;2023-12-07T08:02:54;30.50;;;18.85;;
37455;SDS011;23316;50.718;7.328;2023-12-07T08:05:22;28.73;;;18.23;;
37455;SDS011;23316;50.718;7.328;2023-12-07T08:07:52;32.28;;;17.35;;
37455;SDS011;23316;50.718;7.328;2023-12-07T08:10:26;32.88;;;18.05;;
37455;SDS011;23316;50.718;7.328;2023-12-07T08:12:55;28.98;;;17.70;;
37455;SDS011;23316;50.718;7.328;2023-12-07T08:15:24;27.33;;;16.98;;
37455;SDS011;23316;50.718;7.328;2023-12-07T08:17:52;33.38;;;16.95;;
37455;SDS011;23316;50.718;7.328;2023-12-07T08:20:21;30.63;;;17.48;;
37455;SDS011;23316;50.718;7.328;2023-12-07T08:22:50;26.08;;;16.45;;
37455;SDS011;23316;50.718;7.328;2023-12-07T08:25:18;27.85;;;16.45;;
37455;SDS011;23316;50.718;7.328;2023-12-07T08:27:49;29.45;;;17.52;;
37455;SDS011;23316;50.718;7.328;2023-12-07T08:30:17;28.27;;;16.90;;
37455;SDS011;23316;50.718;7.328;2023-12-07T08:32:46;31.60;;;16.95;;
37455;SDS011;23316;50.718;7.328;2023-12-07T08:35:14;26.17;;;16.10;;
37455;SDS011;23316;50.718;7.328;2023-12-07T08:37:44;27.63;;;16.92;;
37455;SDS011;23316;50.718;7.328;2023-12-07T08:40:12;26.75;;;15.88;;
37455;SDS011;23316;50.718;7.328;2023-12-07T08:42:40;30.38;;;16.85;;
37455;SDS011;23316;50.718;7.328;2023-12-07T08:45:11;24.35;;;14.77;;
37455;SDS011;23316;50.718;7.328;2023-12-07T08:47:39;24.55;;;15.60;;
37455;SDS011;23316;50.718;7.328;2023-12-07T08:50:06;31.48;;;14.65;;
37455;SDS011;23316;50.718;7.328;2023-12-07T08:52:35;26.55;;;15.60;;
37455;SDS011;23316;50.718;7.328;2023-12-07T08:55:02;27.48;;;14.25;;
37455;SDS011;23316;50.718;7.328;2023-12-07T08:57:30;24.05;;;14.48;;
37455;SDS011;23316;50.718;7.328;2023-12-07T08:59:58;23.52;;;15.52;;
37455;SDS011;23316;50.718;7.328;2023-12-07T09:02:26;20.58;;;13.45;;
37455;SDS011;23316;50.718;7.328;2023-12-07T09:04:54;25.15;;;14.75;;
37455;SDS011;23316;50.718;7.328;2023-12-07T09:07:21;22.77;;;14.23;;
37455;SDS011;23316;50.718;7.328;2023-12-07T09:09:48;22.77;;;13.18;;
37455;SDS011;23316;50.718;7.328;2023-12-07T09:12:15;26.42;;;14.85;;
37455;SDS011;23316;50.718;7.328;2023-12-07T09:14:42;28.23;;;14.65;;
37455;SDS011;23316;50.718;7.328;2023-12-07T09:17:10;23.40;;;14.82;;
37455;SDS011;23316;50.718;7.328;2023-12-07T09:19:39;26.73;;;15.20;;
37455;SDS011;23316;50.718;7.328;2023-12-07T09:22:06;22.33;;;14.13;;
37455;SDS011;23316;50.718;7.328;2023-12-07T09:24:34;24.92;;;14.10;;
37455;SDS011;23316;50.718;7.328;2023-12-07T09:27:01;25.35;;;14.70;;
37455;SDS011;23316;50.718;7.328;2023-12-07T09:29:28;24.48;;;13.85;;
37455;SDS011;23316;50.718;7.328;2023-12-07T09:31:56;23.30;;;14.65;;
37455;SDS011;23316;50.718;7.328;2023-12-07T09:34:23;21.77;;;13.27;;
37455;SDS011;23316;50.718;7.328;2023-12-07T09:37:04;21.80;;;13.05;;
37455;SDS011;23316;50.718;7.328;2023-12-07T09:39:32;27.70;;;14.52;;
37455;SDS011;23316;50.718;7.328;2023-12-07T09:42:00;22.52;;;13.50;;
37455;SDS011;23316;50.718;7.328;2023-12-07T09:44:28;27.77;;;14.25;;
37455;SDS011;23316;50.718;7.328;2023-12-07T09:46:55;22.88;;;14.10;;
37455;SDS011;23316;50.718;7.328;2023-12-07T09:49:23;25.08;;;14.00;;
37455;SDS011;23316;50.718;7.328;2023-12-07T09:51:51;24.27;;;14.02;;
37455;SDS011;23316;50.718;7.328;2023-12-07T09:54:20;21.67;;;13.93;;
37455;SDS011;23316;50.718;7.328;2023-12-07T09:56:50;23.13;;;13.25;;
37455;SDS011;23316;50.718;7.328;2023-12-07T09:59:20;23.98;;;13.95;;
37455;SDS011;23316;50.718;7.328;2023-12-07T10:01:47;21.20;;;12.35;;
37455;SDS011;23316;50.718;7.328;2023-12-07T10:04:15;22.15;;;13.27;;
37455;SDS011;23316;50.718;7.328;2023-12-07T10:06:43;22.30;;;12.32;;
37455;SDS011;23316;50.718;7.328;2023-12-07T10:09:11;21.67;;;12.60;;
37455;SDS011;23316;50.718;7.328;2023-12-07T10:11:40;21.17;;;12.70;;
37455;SDS011;23316;50.718;7.328;2023-12-07T10:14:08;19.92;;;12.52;;
37455;SDS011;23316;50.718;7.328;2023-12-07T10:16:36;21.05;;;13.25;;
37455;SDS011;23316;50.718;7.328;2023-12-07T10:19:12;26.55;;;12.27;;
37455;SDS011;23316;50.718;7.328;2023-12-07T10:21:40;23.20;;;12.75;;
37455;SDS011;23316;50.718;7.328;2023-12-07T10:24:08;22.63;;;12.18;;
37455;SDS011;23316;50.718;7.328;2023-12-07T10:26:36;20.17;;;12.70;;
37455;SDS011;23316;50.718;7.328;2023-12-07T10:29:05;20.45;;;12.13;;
37455;SDS011;23316;50.718;7.328;2023-12-07T10:31:33;21.98;;;12.82;;
37455;SDS011;23316;50.718;7.328;2023-12-07T10:34:00;19.55;;;11.68;;
37455;SDS011;23316;50.718;7.328;2023-12-07T10:36:27;19.35;;;11.68;;
37455;SDS011;23316;50.718;7.328;2023-12-07T10:38:55;22.13;;;11.38;;
37455;SDS011;23316;50.718;7.328;2023-12-07T10:41:23;19.77;;;11.38;;
37455;SDS011;23316;50.718;7.328;2023-12-07T10:43:52;21.35;;;11.60;;
37455;SDS011;23316;50.718;7.328;2023-12-07T10:46:21;23.70;;;12.10;;
37455;SDS011;23316;50.718;7.328;2023-12-07T10:48:51;21.05;;;11.05;;
37455;SDS011;23316;50.718;7.328;2023-12-07T10:51:23;20.98;;;11.45;;
37455;SDS011;23316;50.718;7.328;2023-12-07T10:53:57;19.65;;;10.40;;
37455;SDS011;23316;50.718;7.328;2023-12-07T10:56:28;18.30;;;11.25;;
37455;SDS011;23316;50.718;7.328;2023-12-07T10:59:11;18.10;;;11.60;;
37455;SDS011;23316;50.718;7.328;2023-12-07T11:01:40;18.73;;;11.15;;
37455;SDS011;23316;50.718;7.328;2023-12-07T11:04:09;19.48;;;10.65;;
37455;SDS011;23316;50.718;7.328;2023-12-07T11:06:38;20.45;;;10.57;;
37455;SDS011;23316;50.718;7.328;2023-12-07T11:09:07;18.50;;;10.63;;
37455;SDS011;23316;50.718;7.328;2023-12-07T11:11:39;16.15;;;9.30;;
37455;SDS011;23316;50.718;7.328;2023-12-07T11:14:11;19.92;;;9.95;;
37455;SDS011;23316;50.718;7.328;2023-12-07T11:16:41;16.83;;;9.30;;
37455;SDS011;23316;50.718;7.328;2023-12-07T11:19:23;13.65;;;9.18;;
37455;SDS011;23316;50.718;7.328;2023-12-07T11:22:11;19.88;;;10.50;;
37455;SDS011;23316;50.718;7.328;2023-12-07T11:24:51;16.67;;;9.75;;
37455;SDS011;23316;50.718;7.328;2023-12-07T11:27:21;19.83;;;10.40;;
37455;SDS011;23316;50.718;7.328;2023-12-07T11:29:48;17.42;;;9.90;;
37455;SDS011;23316;50.718;7.328;2023-12-07T11:32:17;13.40;;;9.45;;
37455;SDS011;23316;50.718;7.328;2023-12-07T11:34:44;16.55;;;10.02;;
37455;SDS011;23316;50.718;7.328;2023-12-07T11:37:14;20.80;;;10.55;;
37455;SDS011;23316;50.718;7.328;2023-12-07T11:39:42;13.93;;;9.43;;
37455;SDS011;23316;50.718;7.328;2023-12-07T11:42:11;15.15;;;9.90;;
37455;SDS011;23316;50.718;7.328;2023-12-07T11:44:39;14.02;;;9.15;;
37455;SDS011;23316;50.718;7.328;2023-12-07T11:47:08;16.73;;;9.93;;
37455;SDS011;23316;50.718;7.328;2023-12-07T11:49:37;15.98;;;9.70;;
37455;SDS011;23316;50.718;7.328;2023-12-07T11:52:13;16.25;;;9.68;;
37455;SDS011;23316;50.718;7.328;2023-12-07T11:54:43;18.02;;;10.05;;
37455;SDS011;23316;50.718;7.328;2023-12-07T11:57:11;14.70;;;9.85;;
37455;SDS011;23316;50.718;7.328;2023-12-07T11:59:40;14.55;;;9.55;;
37455;SDS011;23316;50.718;7.328;2023-12-07T12:02:07;14.57;;;9.45;;
37455;SDS011;23316;50.718;7.328;2023-12-07T12:04:38;19.35;;;10.25;;
37455;SDS011;23316;50.718;7.328;2023-12-07T12:07:07;16.33;;;9.77;;
37455;SDS011;23316;50.718;7.328;2023-12-07T12:09:34;15.27;;;9.57;;
37455;SDS011;23316;50.718;7.328;2023-12-07T12:12:02;23.17;;;10.85;;
37455;SDS011;23316;50.718;7.328;2023-12-07T12:14:29;19.67;;;10.45;;
37455;SDS011;23316;50.718;7.328;2023-12-07T12:16:56;20.15;;;10.80;;
37455;SDS011;23316;50.718;7.328;2023-12-07T12:19:24;17.17;;;10.60;;
37455;SDS011;23316;50.718;7.328;2023-12-07T12:21:53;20.05;;;11.40;;
37455;SDS011;23316;50.718;7.328;2023-12-07T12:24:21;17.23;;;11.98;;
37455;SDS011;23316;50.718;7.328;2023-12-07T12:26:48;18.83;;;11.20;;
37455;SDS011;23316;50.718;7.328;2023-12-07T12:29:16;20.42;;;11.55;;
37455;SDS011;23316;50.718;7.328;2023-12-07T12:31:44;18.05;;;10.75;;
37455;SDS011;23316;50.718;7.328;2023-12-07T12:34:11;20.63;;;10.93;;
37455;SDS011;23316;50.718;7.328;2023-12-07T12:36:39;18.08;;;10.50;;
37455;SDS011;23316;50.718;7.328;2023-12-07T12:39:07;22.40;;;12.27;;
37455;SDS011;23316;50.718;7.328;2023-12-07T12:41:35;18.75;;;11.23;;
37455;SDS011;23316;50.718;7.328;2023-12-07T12:44:04;19.20;;;11.55;;
37455;SDS011;23316;50.718;7.328;2023-12-07T12:46:33;18.73;;;11.15;;
37455;SDS011;23316;50.718;7.328;2023-12-07T12:49:03;21.67;;;11.15;;
37455;SDS011;23316;50.718;7.328;2023-12-07T12:51:30;23.15;;;11.13;;
37455;SDS011;23316;50.718;7.328;2023-12-07T12:53:58;17.70;;;10.73;;
37455;SDS011;23316;50.718;7.328;2023-12-07T12:56:28;16.55;;;10.65;;
37455;SDS011;23316;50.718;7.328;2023-12-07T12:58:55;17.45;;;10.48;;
37455;SDS011;23316;50.718;7.328;2023-12-07T13:01:23;14.25;;;9.95;;
37455;SDS011;23316;50.718;7.328;2023-12-07T13:03:50;16.63;;;9.68;;
37455;SDS011;23316;50.718;7.328;2023-12-07T13:06:17;18.35;;;10.43;;
37455;SDS011;23316;50.718;7.328;2023-12-07T13:08:45;16.13;;;9.40;;
37455;SDS011;23316;50.718;7.328;2023-12-07T13:11:16;14.10;;;9.85;;
37455;SDS011;23316;50.718;7.328;2023-12-07T13:13:45;16.88;;;9.77;;
37455;SDS011;23316;50.718;7.328;2023-12-07T13:16:15;16.75;;;9.88;;
37455;SDS011;23316;50.718;7.328;2023-12-07T13:18:42;19.30;;;10.80;;
37455;SDS011;23316;50.718;7.328;2023-12-07T13:21:09;17.63;;;10.88;;
37455;SDS011;23316;50.718;7.328;2023-12-07T13:23:37;16.42;;;10.48;;
37455;SDS011;23316;50.718;7.328;2023-12-07T13:26:04;16.88;;;10.00;;
37455;SDS011;23316;50.718;7.328;2023-12-07T13:28:32;17.65;;;10.50;;
37455;SDS011;23316;50.718;7.328;2023-12-07T13:31:00;14.68;;;9.85;;
37455;SDS011;23316;50.718;7.328;2023-12-07T13:33:28;14.90;;;10.30;;
37455;SDS011;23316;50.718;7.328;2023-12-07T13:35:55;18.58;;;10.70;;
37455;SDS011;23316;50.718;7.328;2023-12-07T13:38:23;15.93;;;10.10;;
37455;SDS011;23316;50.718;7.328;2023-12-07T13:40:50;16.50;;;10.32;;
37455;SDS011;23316;50.718;7.328;2023-12-07T13:43:17;18.08;;;10.50;;
37455;SDS011;23316;50.718;7.328;2023-12-07T13:45:44;16.15;;;10.02;;
37455;SDS011;23316;50.718;7.328;2023-12-07T13:48:13;17.23;;;10.57;;
37455;SDS011;23316;50.718;7.328;2023-12-07T13:50:41;16.60;;;9.75;;
37455;SDS011;23316;50.718;7.328;2023-12-07T13:53:09;18.85;;;11.57;;
37455;SDS011;23316;50.718;7.328;2023-12-07T13:55:37;18.33;;;10.85;;
37455;SDS011;23316;50.718;7.328;2023-12-07T13:58:05;19.25;;;11.20;;
37455;SDS011;23316;50.718;7.328;2023-12-07T14:00:33;20.13;;;11.43;;
37455;SDS011;23316;50.718;7.328;2023-12-07T14:03:00;16.33;;;10.55;;
37455;SDS011;23316;50.718;7.328;2023-12-07T14:05:30;16.08;;;10.60;;
37455;SDS011;23316;50.718;7.328;2023-12-07T14:07:57;18.02;;;10.55;;
37455;SDS011;23316;50.718;7.328;2023-12-07T14:10:25;19.77;;;10.32;;
37455;SDS011;23316;50.718;7.328;2023-12-07T14:12:52;16.30;;;10.60;;
37455;SDS011;23316;50.718;7.328;2023-12-07T14:15:20;16.60;;;10.02;;
37455;SDS011;23316;50.718;7.328;2023-12-07T14:17:47;18.30;;;11.20;;
37455;SDS011;23316;50.718;7.328;2023-12-07T14:20:14;17.73;;;10.15;;
37455;SDS011;23316;50.718;7.328;2023-12-07T14:22:43;18.75;;;11.02;;
37455;SDS011;23316;50.718;7.328;2023-12-07T14:25:11;21.17;;;11.98;;
37455;SDS011;23316;50.718;7.328;2023-12-07T14:27:39;26.08;;;12.88;;
37455;SDS011;23316;50.718;7.328;2023-12-07T14:30:06;21.27;;;12.98;;
37455;SDS011;23316;50.718;7.328;2023-12-07T14:32:36;23.63;;;12.65;;